Time;durP1;ratioP1;P1;durP2;ratioP2;P2;SDS_P1;SDS_P2;PMS_P1;PMS_P2;Temp;Humidity;BMP_temperature;BMP_pressure;BME280_temperature;BME280_humidity;BME280_pressure;Samples;Min_cycle;Max_cycle;Signal;HPM_P1;HPM_P2
2023/04/07 15:36:28;;;;;;;11.70;7.20;;;9.70;99.90;;;;;;5102030;27;20863;-58
2023/04/07 15:38:54;;;;;;;12.90;7.53;;;9.70;99.90;;;;;;5105109;28;21032;-60
2023/04/07 15:41:20;;;;;;;12.60;7.93;;;9.70;99.90;;;;;;5086228;28;20044;-59
2023/04/07 15:43:46;;;;;;;13.52;8.93;;;9.90;99.90;;;;;;5081356;28;20060;-59
2023/04/07 15:46:11;;;;;;;12.65;7.82;;;10.00;99.90;;;;;;5082218;28;20051;-59
2023/04/07 15:48:37;;;;;;;13.25;8.70;;;10.00;99.90;;;;;;5084719;28;20119;-60
2023/04/07 15:51:02;;;;;;;12.88;8.93;;;10.10;99.90;;;;;;5087346;28;20334;-58
2023/04/07 15:53:28;;;;;;;12.75;8.35;;;10.10;99.90;;;;;;5087890;28;20016;-58
2023/04/07 15:55:54;;;;;;;12.90;8.02;;;10.20;99.90;;;;;;5098115;28;20040;-58
2023/04/07 15:58:20;;;;;;;25.10;15.23;;;10.20;99.90;;;;;;5086309;28;20023;-60
2023/04/07 16:00:46;;;;;;;14.48;9.23;;;10.20;99.90;;;;;;5084741;28;20028;-58
2023/04/07 16:03:11;;;;;;;12.05;7.90;;;10.30;99.90;;;;;;5086112;28;20016;-59
2023/04/07 16:05:37;;;;;;;11.68;6.95;;;10.30;99.90;;;;;;5086154;28;20439;-59
2023/04/07 16:08:03;;;;;;;11.13;6.63;;;10.40;99.90;;;;;;5085020;28;20070;-59
2023/04/07 16:10:28;;;;;;;11.93;6.88;;;10.50;99.90;;;;;;5085580;28;20032;-59
2023/04/07 16:12:54;;;;;;;11.88;6.88;;;10.50;99.90;;;;;;5097993;28;20028;-59
2023/04/07 16:15:20;;;;;;;11.32;6.97;;;10.60;99.90;;;;;;5090302;28;20036;-60
2023/04/07 16:17:47;;;;;;;12.23;7.63;;;10.60;99.90;;;;;;5086205;28;20052;-59
2023/04/07 16:20:15;;;;;;;12.68;7.90;;;10.70;99.90;;;;;;5106591;28;20413;-59
2023/04/07 16:22:46;;;;;;;11.57;7.20;;;10.70;99.90;;;;;;5104825;28;20012;-60
2023/04/07 16:25:16;;;;;;;15.20;8.63;;;10.70;99.90;;;;;;5100529;28;20021;-59
2023/04/07 16:27:43;;;;;;;14.48;8.98;;;10.70;99.90;;;;;;5097526;28;20035;-59
2023/04/07 16:30:10;;;;;;;14.32;8.20;;;10.70;99.90;;;;;;5105583;28;20020;-59
2023/04/07 16:32:35;;;;;;;14.23;8.35;;;10.70;99.90;;;;;;5092427;28;20028;-59
2023/04/07 16:35:02;;;;;;;12.52;7.80;;;10.80;99.90;;;;;;5085815;28;20051;-60
2023/04/07 16:37:29;;;;;;;10.68;7.07;;;10.80;99.90;;;;;;5084756;28;20055;-59
2023/04/07 16:39:56;;;;;;;9.57;5.93;;;10.80;99.90;;;;;;5086977;28;20043;-59
2023/04/07 16:42:27;;;;;;;8.70;5.88;;;10.80;99.90;;;;;;5086839;28;20503;-60
2023/04/07 16:44:53;;;;;;;11.48;6.55;;;10.90;99.90;;;;;;5086328;28;20025;-60
2023/04/07 16:47:18;;;;;;;10.10;6.15;;;10.90;99.90;;;;;;5076418;28;20031;-60
2023/04/07 16:49:44;;;;;;;8.32;5.25;;;10.90;99.90;;;;;;5074002;28;20031;-59
2023/04/07 16:52:10;;;;;;;9.18;5.85;;;10.90;99.90;;;;;;5073522;28;20465;-59
2023/04/07 16:54:36;;;;;;;9.68;6.00;;;10.90;99.90;;;;;;5073710;28;20025;-60
2023/04/07 16:57:01;;;;;;;8.63;5.70;;;10.90;99.90;;;;;;5074009;28;20075;-60
2023/04/07 16:59:27;;;;;;;8.80;5.72;;;11.00;99.90;;;;;;5073632;28;20036;-60
2023/04/07 17:01:52;;;;;;;8.35;5.18;;;11.00;99.90;;;;;;5072453;28;20027;-59
2023/04/07 17:04:18;;;;;;;9.65;5.82;;;11.00;99.90;;;;;;5073253;28;20037;-59
2023/04/07 17:06:43;;;;;;;8.70;5.20;;;10.90;99.90;;;;;;5067934;28;20128;-59
2023/04/07 17:09:14;;;;;;;10.70;6.35;;;10.80;99.90;;;;;;5062054;28;20028;-56
2023/04/07 17:11:40;;;;;;;21.92;12.48;;;10.80;99.90;;;;;;5093356;28;20086;-57
2023/04/07 17:14:06;;;;;;;21.60;11.70;;;10.80;99.90;;;;;;5089918;28;20567;-57
2023/04/07 17:16:31;;;;;;;16.42;9.43;;;10.70;99.90;;;;;;5093251;28;20024;-60
2023/04/07 17:18:57;;;;;;;11.27;7.20;;;10.70;99.90;;;;;;5092943;28;20086;-57
2023/04/07 17:21:23;;;;;;;13.63;9.10;;;10.70;99.90;;;;;;5092192;28;20020;-59
2023/04/07 17:23:48;;;;;;;11.30;6.63;;;10.70;99.90;;;;;;5093395;28;20024;-59
2023/04/07 17:26:15;;;;;;;9.63;6.32;;;10.70;99.90;;;;;;5091249;28;20028;-59
2023/04/07 17:28:40;;;;;;;8.63;5.85;;;10.70;99.90;;;;;;5073392;28;20024;-59
2023/04/07 17:31:06;;;;;;;9.73;6.57;;;10.70;99.90;;;;;;5073142;28;20040;-59
2023/04/07 17:33:32;;;;;;;9.20;6.03;;;10.70;99.90;;;;;;5072379;28;20052;-56
2023/04/07 17:36:01;;;;;;;11.07;5.78;;;10.70;99.90;;;;;;5082091;28;20097;-58
2023/04/07 17:38:27;;;;;;;9.00;6.22;;;10.60;99.90;;;;;;5075944;28;20013;-56
2023/04/07 17:41:00;;;;;;;9.35;5.93;;;10.60;99.90;;;;;;5088686;28;20115;-59
2023/04/07 17:43:27;;;;;;;9.57;5.97;;;10.50;99.90;;;;;;5092922;28;20095;-58
2023/04/07 17:45:53;;;;;;;9.77;6.60;;;10.40;99.90;;;;;;5093121;28;20020;-58
2023/04/07 17:48:18;;;;;;;10.00;6.03;;;10.40;99.90;;;;;;5090541;28;20082;-58
2023/04/07 17:50:46;;;;;;;9.18;6.15;;;10.30;99.90;;;;;;5075809;28;20143;-57
2023/04/07 17:53:11;;;;;;;11.23;6.20;;;10.20;99.90;;;;;;5071529;28;20021;-56
2023/04/07 17:55:37;;;;;;;9.18;5.55;;;10.20;99.90;;;;;;5070503;28;20115;-57
2023/04/07 17:58:03;;;;;;;9.02;5.95;;;10.20;99.90;;;;;;5070385;28;20104;-59
2023/04/07 18:00:29;;;;;;;9.10;5.50;;;10.10;99.90;;;;;;5072269;28;20012;-59
2023/04/07 18:02:55;;;;;;;9.05;6.03;;;10.10;99.90;;;;;;5070480;28;20016;-59
2023/04/07 18:05:21;;;;;;;8.35;5.55;;;10.10;99.90;;;;;;5069980;28;20081;-60
2023/04/07 18:07:48;;;;;;;10.48;5.80;;;10.10;99.90;;;;;;5070052;28;20017;-59
2023/04/07 18:10:14;;;;;;;9.48;5.80;;;10.10;99.90;;;;;;5070349;28;20029;-60
2023/04/07 18:12:40;;;;;;;10.02;6.45;;;10.00;99.90;;;;;;5090305;28;20032;-60
2023/04/07 18:15:07;;;;;;;10.20;6.53;;;10.00;99.90;;;;;;5090629;28;20065;-58
2023/04/07 18:17:33;;;;;;;7.82;4.95;;;9.90;99.90;;;;;;5089892;28;20036;-60
2023/04/07 18:19:58;;;;;;;8.65;5.35;;;9.90;99.90;;;;;;5090050;28;20533;-56
2023/04/07 18:22:25;;;;;;;8.30;5.30;;;9.90;99.90;;;;;;5089717;28;20034;-60
2023/04/07 18:24:51;;;;;;;9.10;5.78;;;9.80;99.90;;;;;;5088905;28;20020;-60
2023/04/07 18:27:16;;;;;;;8.73;5.47;;;9.80;99.90;;;;;;5088087;28;20042;-59
2023/04/07 18:29:42;;;;;;;12.70;6.50;;;9.70;99.90;;;;;;5089459;28;20095;-59
2023/04/07 18:32:08;;;;;;;9.73;5.57;;;9.60;99.90;;;;;;5088253;28;20550;-57
2023/04/07 18:34:33;;;;;;;11.43;6.05;;;9.50;99.90;;;;;;5089787;28;20051;-60
2023/04/07 18:36:59;;;;;;;9.85;5.75;;;9.40;99.90;;;;;;5089831;28;20046;-60
2023/04/07 18:39:26;;;;;;;7.68;5.15;;;9.30;99.90;;;;;;5089786;28;20028;-61
2023/04/07 18:41:53;;;;;;;16.23;4.57;;;9.20;99.90;;;;;;5086063;28;20499;-59
2023/04/07 18:44:19;;;;;;;10.85;4.65;;;9.10;99.90;;;;;;5088923;28;20434;-58
2023/04/07 18:46:47;;;;;;;6.43;4.20;;;9.10;99.90;;;;;;5088547;28;20058;-61
2023/04/07 18:49:13;;;;;;;8.48;4.47;;;9.10;99.90;;;;;;5090078;28;20460;-61
2023/04/07 18:51:38;;;;;;;7.88;4.80;;;9.00;99.90;;;;;;5089086;28;20084;-59
2023/04/07 18:54:04;;;;;;;6.55;3.83;;;8.90;99.90;;;;;;5088658;28;20031;-59
2023/04/07 18:56:30;;;;;;;6.68;4.25;;;8.90;99.90;;;;;;5071457;28;20115;-59
2023/04/07 18:58:56;;;;;;;8.70;5.40;;;8.80;99.90;;;;;;5067499;28;20047;-60
2023/04/07 19:01:22;;;;;;;9.10;5.43;;;8.70;99.90;;;;;;5069470;28;20476;-59
2023/04/07 19:03:47;;;;;;;17.67;6.38;;;8.70;99.90;;;;;;5070403;28;20137;-59
2023/04/07 19:06:17;;;;;;;21.13;5.95;;;8.60;99.90;;;;;;5063148;28;20060;-60
2023/04/07 19:08:42;;;;;;;9.07;4.82;;;8.60;99.90;;;;;;5091807;28;20105;-58
2023/04/07 19:11:08;;;;;;;9.43;4.35;;;8.60;99.90;;;;;;5082650;28;20407;-59
2023/04/07 19:13:35;;;;;;;8.27;3.75;;;8.50;99.90;;;;;;5069470;28;20032;-59
2023/04/07 19:16:01;;;;;;;10.60;3.72;;;8.40;99.90;;;;;;5069284;28;20384;-58
2023/04/07 19:18:30;;;;;;;12.10;3.50;;;8.40;99.90;;;;;;5068566;28;20024;-61
2023/04/07 19:20:56;;;;;;;4.60;2.90;;;8.30;99.90;;;;;;5070498;28;20033;-59
2023/04/07 19:23:21;;;;;;;9.23;2.80;;;8.30;99.90;;;;;;5067659;28;20023;-59
2023/04/07 19:25:47;;;;;;;3.97;2.75;;;8.30;99.90;;;;;;5068660;28;20101;-59
2023/04/07 19:28:13;;;;;;;5.93;2.70;;;8.20;99.90;;;;;;5069184;28;20025;-60
2023/04/07 19:30:38;;;;;;;4.75;2.75;;;8.10;99.90;;;;;;5070664;28;20025;-59
2023/04/07 19:33:05;;;;;;;3.88;2.58;;;8.00;99.90;;;;;;5079571;28;20012;-56
